sensor_id;sensor_type;location;lat;lon;timestamp;temperature;humidity
18392;DHT22;9322;50.932;5.318;2023-12-20T00:02:14;7.00;1.40
18392;DHT22;9322;50.932;5.318;2023-12-20T00:04:40;7.00;1.40
18392;DHT22;9322;50.932;5.318;2023-12-20T00:07:06;6.90;1.40
18392;DHT22;9322;50.932;5.318;2023-12-20T00:09:32;7.00;1.40
18392;DHT22;9322;50.932;5.318;2023-12-20T00:11:57;6.90;1.40
18392;DHT22;9322;50.932;5.318;2023-12-20T00:14:23;6.80;1.40
18392;DHT22;9322;50.932;5.318;2023-12-20T00:16:49;6.70;1.40
18392;DHT22;9322;50.932;5.318;2023-12-20T00:19:15;6.60;1.40
18392;DHT22;9322;50.932;5.318;2023-12-20T00:21:40;6.60;1.40
18392;DHT22;9322;50.932;5.318;2023-12-20T00:24:06;6.60;1.40
18392;DHT22;9322;50.932;5.318;2023-12-20T00:26:32;6.70;1.40
18392;DHT22;9322;50.932;5.318;2023-12-20T00:28:57;6.60;1.40
18392;DHT22;9322;50.932;5.318;2023-12-20T00:31:23;6.50;1.40
18392;DHT22;9322;50.932;5.318;2023-12-20T00:33:49;6.40;1.40
18392;DHT22;9322;50.932;5.318;2023-12-20T00:36:15;6.40;1.40
18392;DHT22;9322;50.932;5.318;2023-12-20T00:38:40;6.30;1.40
18392;DHT22;9322;50.932;5.318;2023-12-20T00:41:06;6.30;1.40
18392;DHT22;9322;50.932;5.318;2023-12-20T00:43:32;6.20;1.40
18392;DHT22;9322;50.932;5.318;2023-12-20T00:45:57;6.20;1.40
18392;DHT22;9322;50.932;5.318;2023-12-20T00:48:25;6.10;1.40
18392;DHT22;9322;50.932;5.318;2023-12-20T00:50:52;6.20;1.40
18392;DHT22;9322;50.932;5.318;2023-12-20T00:53:18;6.20;1.40
18392;DHT22;9322;50.932;5.318;2023-12-20T00:55:45;6.40;1.40
18392;DHT22;9322;50.932;5.318;2023-12-20T00:58:10;6.40;1.40
18392;DHT22;9322;50.932;5.318;2023-12-20T01:00:36;6.30;1.40
18392;DHT22;9322;50.932;5.318;2023-12-20T01:03:02;6.30;1.40
18392;DHT22;9322;50.932;5.318;2023-12-20T01:05:28;6.30;1.40
18392;DHT22;9322;50.932;5.318;2023-12-20T01:07:54;6.40;1.40
18392;DHT22;9322;50.932;5.318;2023-12-20T01:10:20;6.30;1.40
18392;DHT22;9322;50.932;5.318;2023-12-20T01:12:45;6.30;1.40
18392;DHT22;9322;50.932;5.318;2023-12-20T01:15:11;6.30;1.40
18392;DHT22;9322;50.932;5.318;2023-12-20T01:17:37;6.40;1.40
18392;DHT22;9322;50.932;5.318;2023-12-20T01:20:03;6.40;1.40
18392;DHT22;9322;50.932;5.318;2023-12-20T01:22:29;6.50;1.40
18392;DHT22;9322;50.932;5.318;2023-12-20T01:24:55;6.60;1.40
18392;DHT22;9322;50.932;5.318;2023-12-20T01:27:21;6.60;1.40
18392;DHT22;9322;50.932;5.318;2023-12-20T01:29:46;6.60;1.40
18392;DHT22;9322;50.932;5.318;2023-12-20T01:32:12;6.60;1.40
18392;DHT22;9322;50.932;5.318;2023-12-20T01:34:38;6.40;1.40
18392;DHT22;9322;50.932;5.318;2023-12-20T01:37:04;6.20;1.40
18392;DHT22;9322;50.932;5.318;2023-12-20T01:39:30;6.20;1.40
18392;DHT22;9322;50.932;5.318;2023-12-20T01:41:55;6.10;1.40
18392;DHT22;9322;50.932;5.318;2023-12-20T01:44:21;6.10;1.40
18392;DHT22;9322;50.932;5.318;2023-12-20T01:46:47;6.00;1.40
18392;DHT22;9322;50.932;5.318;2023-12-20T01:49:13;6.00;1.40
18392;DHT22;9322;50.932;5.318;2023-12-20T01:51:39;5.90;1.40
18392;DHT22;9322;50.932;5.318;2023-12-20T01:54:06;5.90;1.40
18392;DHT22;9322;50.932;5.318;2023-12-20T01:56:32;5.90;1.40
18392;DHT22;9322;50.932;5.318;2023-12-20T01:58:58;5.90;1.40
18392;DHT22;9322;50.932;5.318;2023-12-20T02:01:25;6.00;1.40
18392;DHT22;9322;50.932;5.318;2023-12-20T02:03:54;6.00;1.40
18392;DHT22;9322;50.932;5.318;2023-12-20T02:06:21;5.90;1.40
18392;DHT22;9322;50.932;5.318;2023-12-20T02:08:49;5.90;1.40
18392;DHT22;9322;50.932;5.318;2023-12-20T02:11:16;5.90;1.40
18392;DHT22;9322;50.932;5.318;2023-12-20T02:13:41;5.90;1.40
18392;DHT22;9322;50.932;5.318;2023-12-20T02:16:07;5.90;1.40
18392;DHT22;9322;50.932;5.318;2023-12-20T02:18:33;5.90;1.40
18392;DHT22;9322;50.932;5.318;2023-12-20T02:20:59;5.90;1.40
18392;DHT22;9322;50.932;5.318;2023-12-20T02:23:25;5.80;1.40
18392;DHT22;9322;50.932;5.318;2023-12-20T02:25:51;5.90;1.40
18392;DHT22;9322;50.932;5.318;2023-12-20T02:28:16;5.80;1.40
18392;DHT22;9322;50.932;5.318;2023-12-20T02:30:42;5.70;1.40
18392;DHT22;9322;50.932;5.318;2023-12-20T02:33:10;5.70;1.40
18392;DHT22;9322;50.932;5.318;2023-12-20T02:35:37;5.70;1.40
18392;DHT22;9322;50.932;5.318;2023-12-20T02:38:03;5.70;1.40
18392;DHT22;9322;50.932;5.318;2023-12-20T02:40:29;5.70;1.40
18392;DHT22;9322;50.932;5.318;2023-12-20T02:42:54;5.70;1.40
18392;DHT22;9322;50.932;5.318;2023-12-20T02:45:20;5.70;1.40
18392;DHT22;9322;50.932;5.318;2023-12-20T02:47:46;6.00;1.40
18392;DHT22;9322;50.932;5.318;2023-12-20T02:50:11;5.60;1.40
18392;DHT22;9322;50.932;5.318;2023-12-20T02:52:37;5.60;1.40
18392;DHT22;9322;50.932;5.318;2023-12-20T02:55:03;5.60;1.40
18392;DHT22;9322;50.932;5.318;2023-12-20T02:57:29;5.60;1.40
18392;DHT22;9322;50.932;5.318;2023-12-20T02:59:55;5.50;1.40
18392;DHT22;9322;50.932;5.318;2023-12-20T03:02:20;5.60;1.40
18392;DHT22;9322;50.932;5.318;2023-12-20T03:04:46;5.40;1.40
18392;DHT22;9322;50.932;5.318;2023-12-20T03:07:12;5.40;1.40
18392;DHT22;9322;50.932;5.318;2023-12-20T03:09:37;5.50;1.40
18392;DHT22;9322;50.932;5.318;2023-12-20T03:12:04;5.50;1.40
18392;DHT22;9322;50.932;5.318;2023-12-20T03:14:29;5.60;1.40
18392;DHT22;9322;50.932;5.318;2023-12-20T03:16:55;5.60;1.40
18392;DHT22;9322;50.932;5.318;2023-12-20T03:19:21;5.60;1.40
18392;DHT22;9322;50.932;5.318;2023-12-20T03:21:47;5.70;1.40
18392;DHT22;9322;50.932;5.318;2023-12-20T03:24:13;5.70;1.40
18392;DHT22;9322;50.932;5.318;2023-12-20T03:26:39;5.70;1.40
18392;DHT22;9322;50.932;5.318;2023-12-20T03:29:04;5.80;1.40
18392;DHT22;9322;50.932;5.318;2023-12-20T03:31:30;5.90;1.40
18392;DHT22;9322;50.932;5.318;2023-12-20T03:33:56;5.90;1.40
18392;DHT22;9322;50.932;5.318;2023-12-20T03:36:21;5.90;1.40
18392;DHT22;9322;50.932;5.318;2023-12-20T03:38:47;5.90;1.40
18392;DHT22;9322;50.932;5.318;2023-12-20T03:41:13;5.90;1.40
18392;DHT22;9322;50.932;5.318;2023-12-20T03:43:39;5.90;1.40
18392;DHT22;9322;50.932;5.318;2023-12-20T03:46:07;5.90;1.40
18392;DHT22;9322;50.932;5.318;2023-12-20T03:48:33;5.90;1.40
18392;DHT22;9322;50.932;5.318;2023-12-20T03:50:59;5.90;1.40
18392;DHT22;9322;50.932;5.318;2023-12-20T03:53:25;5.90;1.40
18392;DHT22;9322;50.932;5.318;2023-12-20T03:55:51;6.00;1.40
18392;DHT22;9322;50.932;5.318;2023-12-20T03:58:16;6.00;1.40
18392;DHT22;9322;50.932;5.318;2023-12-20T04:00:42;6.00;1.40
18392;DHT22;9322;50.932;5.318;2023-12-20T04:03:08;6.10;1.40
18392;DHT22;9322;50.932;5.318;2023-12-20T04:05:34;6.10;1.40
18392;DHT22;9322;50.932;5.318;2023-12-20T04:08:01;6.20;1.40
18392;DHT22;9322;50.932;5.318;2023-12-20T04:10:27;6.20;1.40
18392;DHT22;9322;50.932;5.318;2023-12-20T04:12:53;6.20;1.40
18392;DHT22;9322;50.932;5.318;2023-12-20T04:15:20;6.20;1.40
18392;DHT22;9322;50.932;5.318;2023-12-20T04:17:46;6.20;1.40
18392;DHT22;9322;50.932;5.318;2023-12-20T04:20:11;6.20;1.40
18392;DHT22;9322;50.932;5.318;2023-12-20T04:22:37;6.20;1.40
18392;DHT22;9322;50.932;5.318;2023-12-20T04:25:03;6.30;1.40
18392;DHT22;9322;50.932;5.318;2023-12-20T04:27:29;6.20;1.40
18392;DHT22;9322;50.932;5.318;2023-12-20T04:29:55;6.40;1.40
18392;DHT22;9322;50.932;5.318;2023-12-20T04:32:21;6.30;1.40
18392;DHT22;9322;50.932;5.318;2023-12-20T04:34:46;6.30;1.40
18392;DHT22;9322;50.932;5.318;2023-12-20T04:37:12;6.30;1.40
18392;DHT22;9322;50.932;5.318;2023-12-20T04:39:38;6.30;1.40
18392;DHT22;9322;50.932;5.318;2023-12-20T04:42:04;6.30;1.40
18392;DHT22;9322;50.932;5.318;2023-12-20T04:44:30;6.40;1.40
18392;DHT22;9322;50.932;5.318;2023-12-20T04:46:55;6.40;1.40
18392;DHT22;9322;50.932;5.318;2023-12-20T04:49:22;6.30;1.40
18392;DHT22;9322;50.932;5.318;2023-12-20T04:51:47;6.20;1.40
18392;DHT22;9322;50.932;5.318;2023-12-20T04:54:13;6.30;1.40
18392;DHT22;9322;50.932;5.318;2023-12-20T04:56:39;6.30;1.40
18392;DHT22;9322;50.932;5.318;2023-12-20T04:59:05;6.30;1.40
18392;DHT22;9322;50.932;5.318;2023-12-20T05:01:31;6.20;1.40
18392;DHT22;9322;50.932;5.318;2023-12-20T05:03:56;6.20;1.40
18392;DHT22;9322;50.932;5.318;2023-12-20T05:06:22;6.20;1.40
18392;DHT22;9322;50.932;5.318;2023-12-20T05:08:48;6.20;1.40
18392;DHT22;9322;50.932;5.318;2023-12-20T05:11:13;6.20;1.40
18392;DHT22;9322;50.932;5.318;2023-12-20T05:13:40;6.20;1.40
18392;DHT22;9322;50.932;5.318;2023-12-20T05:16:06;6.30;1.40
18392;DHT22;9322;50.932;5.318;2023-12-20T05:18:32;6.30;1.40
18392;DHT22;9322;50.932;5.318;2023-12-20T05:20:58;6.20;1.40
18392;DHT22;9322;50.932;5.318;2023-12-20T05:23:23;6.30;1.40
18392;DHT22;9322;50.932;5.318;2023-12-20T05:25:49;6.10;1.40
18392;DHT22;9322;50.932;5.318;2023-12-20T05:28:15;6.10;1.40
18392;DHT22;9322;50.932;5.318;2023-12-20T05:30:41;6.10;1.40
18392;DHT22;9322;50.932;5.318;2023-12-20T05:33:07;6.10;1.40
18392;DHT22;9322;50.932;5.318;2023-12-20T05:35:32;6.00;1.40
18392;DHT22;9322;50.932;5.318;2023-12-20T05:37:58;5.90;1.40
18392;DHT22;9322;50.932;5.318;2023-12-20T05:40:24;5.80;1.40
18392;DHT22;9322;50.932;5.318;2023-12-20T05:42:50;5.90;1.40
18392;DHT22;9322;50.932;5.318;2023-12-20T05:45:16;5.70;1.40
18392;DHT22;9322;50.932;5.318;2023-12-20T05:47:41;5.70;1.40
18392;DHT22;9322;50.932;5.318;2023-12-20T05:50:07;5.70;1.40
18392;DHT22;9322;50.932;5.318;2023-12-20T05:52:33;5.70;1.40
18392;DHT22;9322;50.932;5.318;2023-12-20T05:54:59;5.70;1.40
18392;DHT22;9322;50.932;5.318;2023-12-20T05:57:27;5.70;1.40
18392;DHT22;9322;50.932;5.318;2023-12-20T05:59:52;5.60;1.40
18392;DHT22;9322;50.932;5.318;2023-12-20T06:02:18;5.60;1.40
18392;DHT22;9322;50.932;5.318;2023-12-20T06:04:45;5.60;1.40
18392;DHT22;9322;50.932;5.318;2023-12-20T06:07:14;5.60;1.40
18392;DHT22;9322;50.932;5.318;2023-12-20T06:09:40;5.60;1.40
18392;DHT22;9322;50.932;5.318;2023-12-20T06:12:06;5.50;1.40
18392;DHT22;9322;50.932;5.318;2023-12-20T06:14:32;5.40;1.40
18392;DHT22;9322;50.932;5.318;2023-12-20T06:16:58;5.50;1.40
18392;DHT22;9322;50.932;5.318;2023-12-20T06:19:23;5.40;1.40
18392;DHT22;9322;50.932;5.318;2023-12-20T06:21:49;5.40;1.40
18392;DHT22;9322;50.932;5.318;2023-12-20T06:24:15;5.40;1.40
18392;DHT22;9322;50.932;5.318;2023-12-20T06:26:40;5.50;1.40
18392;DHT22;9322;50.932;5.318;2023-12-20T06:29:06;5.40;1.40
18392;DHT22;9322;50.932;5.318;2023-12-20T06:31:32;5.50;1.40
18392;DHT22;9322;50.932;5.318;2023-12-20T06:33:59;5.50;1.40
18392;DHT22;9322;50.932;5.318;2023-12-20T06:36:26;5.60;1.40
18392;DHT22;9322;50.932;5.318;2023-12-20T06:38:52;5.70;1.40
18392;DHT22;9322;50.932;5.318;2023-12-20T06:41:18;5.70;1.40
18392;DHT22;9322;50.932;5.318;2023-12-20T06:43:44;5.70;1.40
18392;DHT22;9322;50.932;5.318;2023-12-20T06:46:10;5.70;1.40
18392;DHT22;9322;50.932;5.318;2023-12-20T06:48:36;5.80;1.40
18392;DHT22;9322;50.932;5.318;2023-12-20T06:51:02;5.80;1.40
18392;DHT22;9322;50.932;5.318;2023-12-20T06:53:27;5.90;1.40
18392;DHT22;9322;50.932;5.318;2023-12-20T06:55:54;6.00;1.40
18392;DHT22;9322;50.932;5.318;2023-12-20T06:58:21;6.00;1.40
18392;DHT22;9322;50.932;5.318;2023-12-20T07:00:47;6.00;1.40
18392;DHT22;9322;50.932;5.318;2023-12-20T07:03:13;6.00;1.40
18392;DHT22;9322;50.932;5.318;2023-12-20T07:05:39;6.00;1.40
18392;DHT22;9322;50.932;5.318;2023-12-20T07:08:06;5.90;1.40
18392;DHT22;9322;50.932;5.318;2023-12-20T07:10:32;5.90;1.40
18392;DHT22;9322;50.932;5.318;2023-12-20T07:12:58;5.80;1.40
18392;DHT22;9322;50.932;5.318;2023-12-20T07:15:24;5.80;1.40
18392;DHT22;9322;50.932;5.318;2023-12-20T07:17:49;5.80;1.40
18392;DHT22;9322;50.932;5.318;2023-12-20T07:20:15;5.70;1.40
18392;DHT22;9322;50.932;5.318;2023-12-20T07:22:42;5.60;1.40
18392;DHT22;9322;50.932;5.318;2023-12-20T07:25:08;5.60;1.40
18392;DHT22;9322;50.932;5.318;2023-12-20T07:27:34;5.60;1.40
18392;DHT22;9322;50.932;5.318;2023-12-20T07:30:00;5.70;1.40
18392;DHT22;9322;50.932;5.318;2023-12-20T07:32:25;5.60;1.40
18392;DHT22;9322;50.932;5.318;2023-12-20T07:34:51;5.70;1.40
18392;DHT22;9322;50.932;5.318;2023-12-20T07:37:17;5.60;1.40
18392;DHT22;9322;50.932;5.318;2023-12-20T07:39:43;5.70;1.40
18392;DHT22;9322;50.932;5.318;2023-12-20T07:42:08;5.60;1.40
18392;DHT22;9322;50.932;5.318;2023-12-20T07:44:34;5.70;1.40
18392;DHT22;9322;50.932;5.318;2023-12-20T07:47:03;5.70;1.40
18392;DHT22;9322;50.932;5.318;2023-12-20T07:49:30;5.70;1.40
18392;DHT22;9322;50.932;5.318;2023-12-20T07:51:56;5.60;1.40
18392;DHT22;9322;50.932;5.318;2023-12-20T07:54:22;5.60;1.40
18392;DHT22;9322;50.932;5.318;2023-12-20T07:56:48;5.60;1.40
18392;DHT22;9322;50.932;5.318;2023-12-20T07:59:14;5.50;1.40
18392;DHT22;9322;50.932;5.318;2023-12-20T08:01:40;5.50;1.40
18392;DHT22;9322;50.932;5.318;2023-12-20T08:04:06;5.60;1.40
18392;DHT22;9322;50.932;5.318;2023-12-20T08:06:31;5.70;1.40
18392;DHT22;9322;50.932;5.318;2023-12-20T08:08:57;5.60;1.40
18392;DHT22;9322;50.932;5.318;2023-12-20T08:11:23;5.70;1.40
18392;DHT22;9322;50.932;5.318;2023-12-20T08:13:49;5.50;1.40
18392;DHT22;9322;50.932;5.318;2023-12-20T08:16:14;5.60;1.40
18392;DHT22;9322;50.932;5.318;2023-12-20T08:18:43;5.70;1.40
18392;DHT22;9322;50.932;5.318;2023-12-20T08:21:08;5.70;1.40
18392;DHT22;9322;50.932;5.318;2023-12-20T08:23:34;5.70;1.40
18392;DHT22;9322;50.932;5.318;2023-12-20T08:26:07;5.70;1.40
18392;DHT22;9322;50.932;5.318;2023-12-20T08:28:34;6.00;1.40
18392;DHT22;9322;50.932;5.318;2023-12-20T08:31:00;6.10;1.40
18392;DHT22;9322;50.932;5.318;2023-12-20T08:33:26;6.30;1.40
18392;DHT22;9322;50.932;5.318;2023-12-20T08:35:52;6.30;1.40
18392;DHT22;9322;50.932;5.318;2023-12-20T08:38:17;6.60;1.40
18392;DHT22;9322;50.932;5.318;2023-12-20T08:40:44;6.90;1.40
18392;DHT22;9322;50.932;5.318;2023-12-20T08:43:10;7.10;1.40
18392;DHT22;9322;50.932;5.318;2023-12-20T08:45:35;7.10;1.40
18392;DHT22;9322;50.932;5.318;2023-12-20T08:48:01;7.10;1.40
18392;DHT22;9322;50.932;5.318;2023-12-20T08:50:27;7.10;1.40
18392;DHT22;9322;50.932;5.318;2023-12-20T08:52:52;6.70;1.40
18392;DHT22;9322;50.932;5.318;2023-12-20T08:55:19;6.70;1.40
18392;DHT22;9322;50.932;5.318;2023-12-20T08:57:45;6.70;1.40
18392;DHT22;9322;50.932;5.318;2023-12-20T09:00:11;6.60;1.40
18392;DHT22;9322;50.932;5.318;2023-12-20T09:02:37;6.60;1.40
18392;DHT22;9322;50.932;5.318;2023-12-20T09:05:03;6.60;1.40
18392;DHT22;9322;50.932;5.318;2023-12-20T09:07:29;6.70;1.40
18392;DHT22;9322;50.932;5.318;2023-12-20T09:09:58;6.70;1.40
18392;DHT22;9322;50.932;5.318;2023-12-20T09:12:24;6.60;1.40
18392;DHT22;9322;50.932;5.318;2023-12-20T09:14:51;6.60;1.40
18392;DHT22;9322;50.932;5.318;2023-12-20T09:17:18;6.80;1.40
18392;DHT22;9322;50.932;5.318;2023-12-20T09:19:44;7.60;1.40
18392;DHT22;9322;50.932;5.318;2023-12-20T09:22:11;8.60;1.40
18392;DHT22;9322;50.932;5.318;2023-12-20T09:24:37;9.00;1.40
18392;DHT22;9322;50.932;5.318;2023-12-20T09:27:04;9.20;1.40
18392;DHT22;9322;50.932;5.318;2023-12-20T09:29:31;9.60;1.40
18392;DHT22;9322;50.932;5.318;2023-12-20T09:31:57;10.00;1.40
18392;DHT22;9322;50.932;5.318;2023-12-20T09:34:23;10.20;1.40
18392;DHT22;9322;50.932;5.318;2023-12-20T09:36:50;10.20;1.40
18392;DHT22;9322;50.932;5.318;2023-12-20T09:39:19;10.50;1.40
18392;DHT22;9322;50.932;5.318;2023-12-20T09:42:02;10.90;1.40
18392;DHT22;9322;50.932;5.318;2023-12-20T09:44:28;11.20;1.40
18392;DHT22;9322;50.932;5.318;2023-12-20T09:46:55;11.30;1.40
18392;DHT22;9322;50.932;5.318;2023-12-20T09:49:21;11.10;1.40
18392;DHT22;9322;50.932;5.318;2023-12-20T09:51:48;11.20;1.40
18392;DHT22;9322;50.932;5.318;2023-12-20T09:54:19;11.40;1.40
18392;DHT22;9322;50.932;5.318;2023-12-20T09:56:46;11.60;1.40
18392;DHT22;9322;50.932;5.318;2023-12-20T09:59:12;11.60;1.40
18392;DHT22;9322;50.932;5.318;2023-12-20T10:01:40;12.00;1.40
18392;DHT22;9322;50.932;5.318;2023-12-20T10:04:08;12.10;1.40
18392;DHT22;9322;50.932;5.318;2023-12-20T10:06:41;12.00;1.40
18392;DHT22;9322;50.932;5.318;2023-12-20T10:09:08;11.70;1.40
18392;DHT22;9322;50.932;5.318;2023-12-20T10:11:38;11.90;1.40
18392;DHT22;9322;50.932;5.318;2023-12-20T10:14:05;12.40;1.40
18392;DHT22;9322;50.932;5.318;2023-12-20T10:16:31;12.20;1.40
18392;DHT22;9322;50.932;5.318;2023-12-20T10:18:58;10.90;1.40
18392;DHT22;9322;50.932;5.318;2023-12-20T10:21:25;10.30;1.40
18392;DHT22;9322;50.932;5.318;2023-12-20T10:23:56;10.10;1.40
18392;DHT22;9322;50.932;5.318;2023-12-20T10:26:23;9.80;1.40
18392;DHT22;9322;50.932;5.318;2023-12-20T10:29:00;9.20;1.40
18392;DHT22;9322;50.932;5.318;2023-12-20T10:31:30;8.80;1.40
18392;DHT22;9322;50.932;5.318;2023-12-20T10:33:57;8.50;1.40
18392;DHT22;9322;50.932;5.318;2023-12-20T10:36:26;8.30;1.40
18392;DHT22;9322;50.932;5.318;2023-12-20T10:38:53;8.40;1.40
18392;DHT22;9322;50.932;5.318;2023-12-20T10:41:27;8.40;1.40
18392;DHT22;9322;50.932;5.318;2023-12-20T10:44:03;8.50;1.40
18392;DHT22;9322;50.932;5.318;2023-12-20T10:46:30;8.60;1.40
18392;DHT22;9322;50.932;5.318;2023-12-20T10:48:58;8.40;1.40
18392;DHT22;9322;50.932;5.318;2023-12-20T10:51:25;8.30;1.40
18392;DHT22;9322;50.932;5.318;2023-12-20T10:53:56;8.30;1.40
18392;DHT22;9322;50.932;5.318;2023-12-20T10:56:22;8.40;1.40
18392;DHT22;9322;50.932;5.318;2023-12-20T10:58:51;8.40;1.40
18392;DHT22;9322;50.932;5.318;2023-12-20T11:01:18;8.30;1.40
18392;DHT22;9322;50.932;5.318;2023-12-20T11:03:52;8.40;1.40
18392;DHT22;9322;50.932;5.318;2023-12-20T11:06:46;8.50;1.40
18392;DHT22;9322;50.932;5.318;2023-12-20T11:09:25;8.50;1.40
18392;DHT22;9322;50.932;5.318;2023-12-20T11:17:11;8.50;1.40
18392;DHT22;9322;50.932;5.318;2023-12-20T11:22:25;8.70;1.40
18392;DHT22;9322;50.932;5.318;2023-12-20T11:24:52;8.80;1.40
18392;DHT22;9322;50.932;5.318;2023-12-20T11:27:19;8.80;1.40
18392;DHT22;9322;50.932;5.318;2023-12-20T11:29:52;8.70;1.40
18392;DHT22;9322;50.932;5.318;2023-12-20T11:35:00;8.70;1.40
18392;DHT22;9322;50.932;5.318;2023-12-20T11:37:30;8.60;1.40
18392;DHT22;9322;50.932;5.318;2023-12-20T11:40:15;8.60;1.40
18392;DHT22;9322;50.932;5.318;2023-12-20T11:42:43;8.50;1.40
18392;DHT22;9322;50.932;5.318;2023-12-20T11:45:13;8.40;1.40
18392;DHT22;9322;50.932;5.318;2023-12-20T11:47:42;8.30;1.40
18392;DHT22;9322;50.932;5.318;2023-12-20T11:50:08;8.40;1.40
18392;DHT22;9322;50.932;5.318;2023-12-20T11:52:35;8.40;1.40
18392;DHT22;9322;50.932;5.318;2023-12-20T11:55:00;8.50;1.40
18392;DHT22;9322;50.932;5.318;2023-12-20T11:57:26;8.40;1.40
18392;DHT22;9322;50.932;5.318;2023-12-20T11:59:52;8.40;1.40
18392;DHT22;9322;50.932;5.318;2023-12-20T12:02:17;8.40;1.40
18392;DHT22;9322;50.932;5.318;2023-12-20T12:04:43;8.50;1.40
18392;DHT22;9322;50.932;5.318;2023-12-20T12:07:09;8.30;1.40
18392;DHT22;9322;50.932;5.318;2023-12-20T12:09:35;8.30;1.40
18392;DHT22;9322;50.932;5.318;2023-12-20T12:12:01;8.30;1.40
18392;DHT22;9322;50.932;5.318;2023-12-20T12:14:26;8.40;1.40
18392;DHT22;9322;50.932;5.318;2023-12-20T12:16:53;8.20;1.40
18392;DHT22;9322;50.932;5.318;2023-12-20T12:19:26;8.10;1.40
18392;DHT22;9322;50.932;5.318;2023-12-20T12:22:09;8.20;1.40
18392;DHT22;9322;50.932;5.318;2023-12-20T12:24:45;8.40;1.40
18392;DHT22;9322;50.932;5.318;2023-12-20T12:27:14;8.40;1.40
18392;DHT22;9322;50.932;5.318;2023-12-20T12:29:41;8.40;1.40
18392;DHT22;9322;50.932;5.318;2023-12-20T12:32:09;8.40;1.40
18392;DHT22;9322;50.932;5.318;2023-12-20T12:34:36;8.40;1.40
18392;DHT22;9322;50.932;5.318;2023-12-20T12:37:03;8.50;1.40
18392;DHT22;9322;50.932;5.318;2023-12-20T12:39:29;8.40;1.40
18392;DHT22;9322;50.932;5.318;2023-12-20T12:41:56;8.50;1.40
18392;DHT22;9322;50.932;5.318;2023-12-20T12:44:22;8.40;1.40
18392;DHT22;9322;50.932;5.318;2023-12-20T12:46:50;8.40;1.40
18392;DHT22;9322;50.932;5.318;2023-12-20T12:49:17;8.40;1.40
18392;DHT22;9322;50.932;5.318;2023-12-20T12:51:43;8.50;1.40
18392;DHT22;9322;50.932;5.318;2023-12-20T12:54:09;8.60;1.40
18392;DHT22;9322;50.932;5.318;2023-12-20T12:56:36;8.50;1.40
18392;DHT22;9322;50.932;5.318;2023-12-20T12:59:02;8.60;1.40
18392;DHT22;9322;50.932;5.318;2023-12-20T13:01:28;8.50;1.40
18392;DHT22;9322;50.932;5.318;2023-12-20T13:03:54;8.60;1.40
18392;DHT22;9322;50.932;5.318;2023-12-20T13:06:20;8.50;1.40
18392;DHT22;9322;50.932;5.318;2023-12-20T13:08:46;8.50;1.40
18392;DHT22;9322;50.932;5.318;2023-12-20T13:11:12;8.50;1.40
18392;DHT22;9322;50.932;5.318;2023-12-20T13:13:37;8.60;1.40
18392;DHT22;9322;50.932;5.318;2023-12-20T13:16:04;8.50;1.40
18392;DHT22;9322;50.932;5.318;2023-12-20T13:18:29;8.30;1.40
18392;DHT22;9322;50.932;5.318;2023-12-20T13:20:55;8.50;1.40
18392;DHT22;9322;50.932;5.318;2023-12-20T13:23:21;8.50;1.40
18392;DHT22;9322;50.932;5.318;2023-12-20T13:25:47;8.50;1.40
18392;DHT22;9322;50.932;5.318;2023-12-20T13:28:13;8.70;1.40
18392;DHT22;9322;50.932;5.318;2023-12-20T13:30:39;8.90;1.40
18392;DHT22;9322;50.932;5.318;2023-12-20T13:33:05;8.80;1.40
18392;DHT22;9322;50.932;5.318;2023-12-20T13:35:32;8.80;1.40
18392;DHT22;9322;50.932;5.318;2023-12-20T13:37:58;8.90;1.40
18392;DHT22;9322;50.932;5.318;2023-12-20T13:40:24;8.90;1.40
18392;DHT22;9322;50.932;5.318;2023-12-20T13:42:50;8.90;1.40
18392;DHT22;9322;50.932;5.318;2023-12-20T13:45:16;8.80;1.40
18392;DHT22;9322;50.932;5.318;2023-12-20T13:47:42;8.70;1.40
18392;DHT22;9322;50.932;5.318;2023-12-20T13:50:08;8.70;1.40
18392;DHT22;9322;50.932;5.318;2023-12-20T13:52:33;8.80;1.40
18392;DHT22;9322;50.932;5.318;2023-12-20T13:54:59;8.80;1.40
18392;DHT22;9322;50.932;5.318;2023-12-20T13:57:25;8.80;1.40
18392;DHT22;9322;50.932;5.318;2023-12-20T13:59:50;8.80;1.40
18392;DHT22;9322;50.932;5.318;2023-12-20T14:02:16;8.70;1.40
18392;DHT22;9322;50.932;5.318;2023-12-20T14:04:42;8.60;1.40
18392;DHT22;9322;50.932;5.318;2023-12-20T14:07:08;8.60;1.40
18392;DHT22;9322;50.932;5.318;2023-12-20T14:09:35;8.50;1.40
18392;DHT22;9322;50.932;5.318;2023-12-20T14:12:01;8.60;1.40
18392;DHT22;9322;50.932;5.318;2023-12-20T14:14:26;8.60;1.40
18392;DHT22;9322;50.932;5.318;2023-12-20T14:16:53;8.60;1.40
18392;DHT22;9322;50.932;5.318;2023-12-20T14:19:19;8.60;1.40
18392;DHT22;9322;50.932;5.318;2023-12-20T14:21:44;8.60;1.40
18392;DHT22;9322;50.932;5.318;2023-12-20T14:24:14;8.60;1.40
18392;DHT22;9322;50.932;5.318;2023-12-20T14:26:41;8.60;1.40
18392;DHT22;9322;50.932;5.318;2023-12-20T14:29:07;8.60;1.40
18392;DHT22;9322;50.932;5.318;2023-12-20T14:31:33;8.70;1.40
18392;DHT22;9322;50.932;5.318;2023-12-20T14:33:59;8.80;1.40
18392;DHT22;9322;50.932;5.318;2023-12-20T14:36:26;8.80;1.40
18392;DHT22;9322;50.932;5.318;2023-12-20T14:38:52;8.70;1.40
18392;DHT22;9322;50.932;5.318;2023-12-20T14:41:18;8.60;1.40
18392;DHT22;9322;50.932;5.318;2023-12-20T14:43:44;8.60;1.40
18392;DHT22;9322;50.932;5.318;2023-12-20T14:46:10;8.60;1.40
18392;DHT22;9322;50.932;5.318;2023-12-20T14:48:36;8.60;1.40
18392;DHT22;9322;50.932;5.318;2023-12-20T14:51:02;8.80;1.40
18392;DHT22;9322;50.932;5.318;2023-12-20T14:53:27;8.70;1.40
18392;DHT22;9322;50.932;5.318;2023-12-20T14:55:53;8.80;1.40
18392;DHT22;9322;50.932;5.318;2023-12-20T14:58:19;8.70;1.40
18392;DHT22;9322;50.932;5.318;2023-12-20T15:00:45;8.70;1.40
18392;DHT22;9322;50.932;5.318;2023-12-20T15:03:10;8.60;1.40
18392;DHT22;9322;50.932;5.318;2023-12-20T15:05:36;8.70;1.40
18392;DHT22;9322;50.932;5.318;2023-12-20T15:08:02;8.70;1.40
18392;DHT22;9322;50.932;5.318;2023-12-20T15:10:28;8.80;1.40
18392;DHT22;9322;50.932;5.318;2023-12-20T15:12:54;8.80;1.40
18392;DHT22;9322;50.932;5.318;2023-12-20T15:15:21;8.60;1.40
18392;DHT22;9322;50.932;5.318;2023-12-20T15:17:47;8.70;1.40
18392;DHT22;9322;50.932;5.318;2023-12-20T15:20:13;8.50;1.40
18392;DHT22;9322;50.932;5.318;2023-12-20T15:22:39;8.60;1.40
18392;DHT22;9322;50.932;5.318;2023-12-20T15:25:07;8.60;1.40
18392;DHT22;9322;50.932;5.318;2023-12-20T15:27:35;8.60;1.40
18392;DHT22;9322;50.932;5.318;2023-12-20T15:30:05;8.70;1.40
18392;DHT22;9322;50.932;5.318;2023-12-20T15:32:32;8.60;1.40
18392;DHT22;9322;50.932;5.318;2023-12-20T15:34:59;8.50;1.40
18392;DHT22;9322;50.932;5.318;2023-12-20T15:37:25;8.60;1.40
18392;DHT22;9322;50.932;5.318;2023-12-20T15:39:52;8.60;1.40
18392;DHT22;9322;50.932;5.318;2023-12-20T15:42:18;8.60;1.40
18392;DHT22;9322;50.932;5.318;2023-12-20T15:44:45;8.60;1.40
18392;DHT22;9322;50.932;5.318;2023-12-20T15:47:11;8.70;1.40
18392;DHT22;9322;50.932;5.318;2023-12-20T15:49:36;8.70;1.40
18392;DHT22;9322;50.932;5.318;2023-12-20T15:52:02;8.60;1.40
18392;DHT22;9322;50.932;5.318;2023-12-20T15:54:28;8.60;1.40
18392;DHT22;9322;50.932;5.318;2023-12-20T15:56:54;8.60;1.40
18392;DHT22;9322;50.932;5.318;2023-12-20T15:59:19;8.60;1.40
18392;DHT22;9322;50.932;5.318;2023-12-20T16:01:45;8.60;1.40
18392;DHT22;9322;50.932;5.318;2023-12-20T16:04:11;8.70;1.40
18392;DHT22;9322;50.932;5.318;2023-12-20T16:06:36;8.70;1.40
18392;DHT22;9322;50.932;5.318;2023-12-20T16:09:02;8.70;1.40
18392;DHT22;9322;50.932;5.318;2023-12-20T16:11:28;8.60;1.40
18392;DHT22;9322;50.932;5.318;2023-12-20T16:13:54;8.70;1.40
18392;DHT22;9322;50.932;5.318;2023-12-20T16:16:20;8.70;1.40
18392;DHT22;9322;50.932;5.318;2023-12-20T16:18:46;8.70;1.40
18392;DHT22;9322;50.932;5.318;2023-12-20T16:21:11;8.70;1.40
18392;DHT22;9322;50.932;5.318;2023-12-20T16:23:37;8.80;1.40